createdAt,value
2023-04-15T00:01:19.962Z,7.77
2023-04-15T00:03:47.413Z,8.57
2023-04-15T00:06:14.472Z,8.80
2023-04-15T00:08:41.807Z,8.87
2023-04-15T00:11:08.267Z,8.90
2023-04-15T00:13:34.742Z,8.87
2023-04-15T00:16:02.473Z,9.03
2023-04-15T00:18:29.698Z,8.80
2023-04-15T00:20:56.347Z,7.87
2023-04-15T00:23:22.848Z,9.17
2023-04-15T00:25:49.280Z,9.60
2023-04-15T00:28:15.769Z,8.93
2023-04-15T00:30:42.287Z,7.97
2023-04-15T00:33:08.716Z,8.03
2023-04-15T00:35:36.690Z,8.27
2023-04-15T00:38:04.739Z,8.97
2023-04-15T00:40:31.198Z,8.83
2023-04-15T00:42:57.627Z,8.57
2023-04-15T00:45:24.144Z,8.90
2023-04-15T00:47:51.273Z,8.70
2023-04-15T00:50:17.684Z,8.23
2023-04-15T00:52:44.186Z,8.20
2023-04-15T00:55:11.261Z,8.10
2023-04-15T00:57:39.243Z,8.30
2023-04-15T01:00:07.981Z,8.50
2023-04-15T01:02:35.541Z,9.33
2023-04-15T01:05:02.664Z,9.67
2023-04-15T01:07:29.192Z,9.73
2023-04-15T01:09:55.676Z,8.80
2023-04-15T01:12:22.104Z,8.83
2023-04-15T01:14:48.501Z,8.73
2023-04-15T01:17:14.894Z,9.63
2023-04-15T01:19:41.517Z,9.40
2023-04-15T01:22:07.986Z,9.10
2023-04-15T01:24:36.101Z,9.77
2023-04-15T01:27:03.377Z,10.23
2023-04-15T01:29:31.722Z,10.40
2023-04-15T01:31:58.459Z,9.50
2023-04-15T01:34:24.960Z,10.60
2023-04-15T01:36:52.145Z,10.07
2023-04-15T01:39:19.311Z,9.90
2023-04-15T01:41:45.841Z,10.17
2023-04-15T01:44:12.359Z,10.37
2023-04-15T01:46:39.233Z,10.10
2023-04-15T01:49:06.230Z,10.10
2023-04-15T01:51:32.911Z,9.77
2023-04-15T01:53:59.337Z,10.47
2023-04-15T01:56:26.589Z,10.53
2023-04-15T01:58:53.197Z,10.40
2023-04-15T02:01:20.008Z,10.77
2023-04-15T02:03:48.208Z,11.20
2023-04-15T02:06:14.785Z,11.20
2023-04-15T02:08:41.220Z,11.00
2023-04-15T02:11:08.394Z,10.50
2023-04-15T02:13:34.767Z,10.77
2023-04-15T02:16:01.727Z,11.20
2023-04-15T02:18:28.210Z,10.87
2023-04-15T02:20:54.669Z,10.53
2023-04-15T02:23:21.328Z,10.23
2023-04-15T02:25:53.304Z,9.33
2023-04-15T02:28:20.973Z,10.80
2023-04-15T02:30:50.982Z,10.43
2023-04-15T02:33:17.541Z,9.73
2023-04-15T02:35:45.318Z,9.43
2023-04-15T02:38:11.998Z,9.80
2023-04-15T02:40:38.376Z,10.13
2023-04-15T02:43:06.915Z,9.73
2023-04-15T02:45:33.653Z,8.80
2023-04-15T02:48:03.892Z,9.67
2023-04-15T02:50:31.587Z,10.17
2023-04-15T02:52:58.277Z,10.23
2023-04-15T02:55:24.660Z,9.87
2023-04-15T02:57:51.085Z,10.03
2023-04-15T03:00:17.553Z,9.83
2023-04-15T03:02:46.180Z,9.83
2023-04-15T03:05:14.220Z,9.53
2023-04-15T03:07:40.963Z,10.10
2023-04-15T03:10:08.197Z,10.13
2023-04-15T03:12:34.601Z,10.40
2023-04-15T03:15:02.099Z,10.77
2023-04-15T03:17:28.789Z,11.00
2023-04-15T03:19:55.662Z,11.97
2023-04-15T03:22:22.173Z,11.33
2023-04-15T03:24:48.549Z,11.30
2023-04-15T03:27:14.949Z,11.77
2023-04-15T03:29:41.368Z,11.13
2023-04-15T03:32:08.027Z,11.90
2023-04-15T03:34:34.436Z,11.80
2023-04-15T03:37:01.062Z,11.70
2023-04-15T03:39:27.456Z,11.60
2023-04-15T03:41:53.851Z,11.27
2023-04-15T03:44:20.285Z,10.50
2023-04-15T03:46:46.694Z,11.40
2023-04-15T03:49:14.075Z,11.20
2023-04-15T03:51:40.666Z,10.60
2023-04-15T03:54:07.142Z,10.43
2023-04-15T03:56:33.536Z,11.27
2023-04-15T03:59:00.220Z,11.33
2023-04-15T04:01:26.820Z,11.17
2023-04-15T04:03:53.363Z,10.67
2023-04-15T04:06:20.000Z,10.63
2023-04-15T04:08:46.384Z,10.73
2023-04-15T04:11:12.916Z,11.10
2023-04-15T04:13:40.158Z,11.30
2023-04-15T04:16:07.140Z,12.37
2023-04-15T04:18:33.849Z,11.37
2023-04-15T04:21:00.701Z,12.33
2023-04-15T04:23:27.161Z,12.07
2023-04-15T04:25:53.565Z,13.67
2023-04-15T04:28:20.024Z,12.80
2023-04-15T04:30:46.496Z,12.73
2023-04-15T04:33:13.028Z,13.20
2023-04-15T04:35:39.433Z,13.57
2023-04-15T04:38:06.311Z,13.90
2023-04-15T04:40:32.779Z,14.40
2023-04-15T04:42:59.450Z,14.33
2023-04-15T04:45:25.856Z,14.33
2023-04-15T04:47:52.344Z,14.97
2023-04-15T04:50:18.869Z,15.27
2023-04-15T04:52:45.413Z,15.20
2023-04-15T04:55:11.862Z,15.63
2023-04-15T04:57:39.571Z,15.50
2023-04-15T05:00:08.475Z,16.47
2023-04-15T05:02:35.414Z,15.67
2023-04-15T05:05:01.882Z,15.73
2023-04-15T05:07:28.561Z,15.63
2023-04-15T05:09:54.995Z,15.47
2023-04-15T05:12:21.601Z,16.50
2023-04-15T05:14:48.028Z,16.30
2023-04-15T05:17:14.489Z,16.10
2023-04-15T05:19:40.878Z,15.63
2023-04-15T05:22:07.811Z,14.97
2023-04-15T05:24:34.219Z,15.93
2023-04-15T05:27:02.236Z,15.73
2023-04-15T05:29:28.632Z,16.50
2023-04-15T05:31:55.307Z,16.03
2023-04-15T05:34:22.394Z,15.80
2023-04-15T05:36:48.823Z,15.27
2023-04-15T05:39:15.485Z,16.53
2023-04-15T05:41:41.996Z,15.57
2023-04-15T05:44:08.537Z,16.23
2023-04-15T05:46:35.076Z,14.93
2023-04-15T05:49:02.002Z,15.70
2023-04-15T05:51:28.585Z,16.00
2023-04-15T05:53:54.992Z,16.67
2023-04-15T05:56:22.208Z,16.10
2023-04-15T05:58:49.676Z,15.87
2023-04-15T06:01:17.201Z,15.97
2023-04-15T06:03:44.120Z,15.47
2023-04-15T06:06:11.063Z,14.63
2023-04-15T06:08:37.512Z,15.83
2023-04-15T06:11:03.992Z,14.27
2023-04-15T06:13:30.544Z,16.47
2023-04-15T06:15:57.073Z,15.40
2023-04-15T06:18:23.551Z,16.03
2023-04-15T06:20:50.173Z,15.37
2023-04-15T06:23:16.634Z,14.73
2023-04-15T06:25:43.482Z,16.00
2023-04-15T06:28:09.861Z,15.00
2023-04-15T06:30:37.059Z,15.73
2023-04-15T06:33:05.775Z,15.33
2023-04-15T06:35:32.339Z,15.20
2023-04-15T06:37:58.771Z,15.17
2023-04-15T06:40:25.167Z,15.63
2023-04-15T06:42:51.860Z,16.53
2023-04-15T06:45:18.440Z,16.17
2023-04-15T06:47:44.867Z,15.27
2023-04-15T06:50:11.907Z,16.63
2023-04-15T06:52:38.436Z,15.50
2023-04-15T06:55:05.446Z,15.20
2023-04-15T06:57:33.814Z,13.93
2023-04-15T07:00:01.578Z,14.80
2023-04-15T07:02:28.079Z,14.87
2023-04-15T07:04:54.581Z,14.43
2023-04-15T07:07:21.466Z,15.50
2023-04-15T07:09:47.916Z,14.40
2023-04-15T07:12:14.363Z,14.50
2023-04-15T07:14:41.300Z,14.20
2023-04-15T07:17:09.510Z,14.87
2023-04-15T07:19:36.145Z,15.10
2023-04-15T07:22:02.557Z,15.20
2023-04-15T07:24:29.077Z,13.70
2023-04-15T07:27:00.804Z,13.87
2023-04-15T07:29:27.763Z,14.20
2023-04-15T07:31:54.414Z,14.53
2023-04-15T07:34:21.095Z,14.27
2023-04-15T07:36:50.563Z,14.37
2023-04-15T07:39:17.317Z,14.83
2023-04-15T07:41:43.739Z,15.13
2023-04-15T07:44:10.534Z,13.97
2023-04-15T07:46:38.367Z,13.60
2023-04-15T07:49:05.136Z,13.93
2023-04-15T07:51:32.242Z,14.60
2023-04-15T07:53:59.230Z,13.97
2023-04-15T07:56:26.437Z,11.70
2023-04-15T07:58:53.162Z,11.80
2023-04-15T08:01:19.569Z,12.97
2023-04-15T08:03:46.587Z,13.27
2023-04-15T08:06:13.155Z,12.90
2023-04-15T08:08:39.868Z,10.97
2023-04-15T08:11:06.418Z,11.30
2023-04-15T08:13:32.892Z,11.33
2023-04-15T08:16:18.792Z,10.87
2023-04-15T08:18:48.174Z,11.20
2023-04-15T08:21:14.948Z,11.47
2023-04-15T08:23:41.488Z,11.30
2023-04-15T08:26:08.689Z,10.97
2023-04-15T08:28:35.745Z,10.97
2023-04-15T08:31:02.229Z,10.67
2023-04-15T08:33:29.001Z,10.77
2023-04-15T08:35:55.461Z,9.80
2023-04-15T08:38:21.898Z,9.07
2023-04-15T08:40:48.326Z,9.37
2023-04-15T08:43:28.564Z,9.40
2023-04-15T08:45:55.735Z,10.43
2023-04-15T08:48:24.593Z,10.33
2023-04-15T08:50:51.581Z,10.17
2023-04-15T08:53:18.136Z,8.77
2023-04-15T08:55:46.323Z,9.27
2023-04-15T08:58:14.218Z,8.90
2023-04-15T09:00:41.384Z,8.70
2023-04-15T09:03:08.911Z,9.20
2023-04-15T09:05:36.498Z,9.33
2023-04-15T09:08:03.410Z,8.67
2023-04-15T09:10:30.052Z,8.27
2023-04-15T09:12:57.212Z,8.03
2023-04-15T09:15:29.866Z,7.90
2023-04-15T09:17:56.897Z,7.80
2023-04-15T09:20:23.711Z,7.70
2023-04-15T09:22:51.085Z,8.67
2023-04-15T09:25:24.346Z,7.87
2023-04-15T09:27:56.574Z,8.27
2023-04-15T09:30:23.596Z,8.07
2023-04-15T09:32:54.514Z,8.27
2023-04-15T09:35:22.247Z,8.60
2023-04-15T09:37:49.620Z,8.03
2023-04-15T09:40:31.576Z,7.33
2023-04-15T09:42:58.031Z,7.40
2023-04-15T09:45:25.682Z,7.40
2023-04-15T09:47:53.570Z,7.70
2023-04-15T09:50:20.813Z,7.33
2023-04-15T09:52:47.436Z,7.13
2023-04-15T09:55:15.027Z,6.80
2023-04-15T09:57:41.840Z,7.07
2023-04-15T10:00:11.145Z,7.87
2023-04-15T10:02:39.373Z,6.73
2023-04-15T10:05:07.120Z,7.23
2023-04-15T10:07:33.958Z,6.63
2023-04-15T10:10:02.405Z,6.80
2023-04-15T10:12:29.427Z,7.20
2023-04-15T10:14:59.504Z,7.43
2023-04-15T10:17:30.524Z,7.20
2023-04-15T10:19:58.575Z,6.93
2023-04-15T10:22:26.409Z,7.20
2023-04-15T10:24:53.229Z,8.43
2023-04-15T10:27:20.455Z,8.23
2023-04-15T10:29:48.552Z,8.40
2023-04-15T10:32:16.054Z,8.97
2023-04-15T10:34:42.450Z,8.43
2023-04-15T10:37:10.980Z,8.80
2023-04-15T10:39:40.273Z,8.73
2023-04-15T10:42:07.530Z,9.17
2023-04-15T10:44:33.970Z,9.70
2023-04-15T10:47:00.751Z,9.43
2023-04-15T10:49:27.197Z,9.37
2023-04-15T10:51:58.048Z,10.30
2023-04-15T10:54:24.343Z,10.00
2023-04-15T10:57:08.892Z,10.60
2023-04-15T10:59:59.295Z,9.90
2023-04-15T11:02:45.272Z,9.93
2023-04-15T11:05:12.733Z,9.57
2023-04-15T11:07:42.362Z,9.47
2023-04-15T11:10:17.506Z,10.10
2023-04-15T11:13:03.744Z,10.43
2023-04-15T11:15:42.683Z,10.00
2023-04-15T11:18:16.365Z,10.37
2023-04-15T11:20:54.474Z,11.70
2023-04-15T11:23:41.185Z,10.93
2023-04-15T11:26:12.455Z,10.70
2023-04-15T11:28:42.080Z,11.27
2023-04-15T11:31:11.360Z,12.23
2023-04-15T11:33:39.117Z,12.27
2023-04-15T11:36:05.612Z,12.53
2023-04-15T11:38:32.237Z,13.90
2023-04-15T11:40:58.640Z,13.93
2023-04-15T11:43:25.363Z,13.23
2023-04-15T11:46:02.530Z,14.33
2023-04-15T11:48:35.243Z,15.07
2023-04-15T11:51:03.818Z,16.07
2023-04-15T11:53:45.883Z,16.53
2023-04-15T11:58:44.734Z,17.00
2023-04-15T12:01:11.141Z,17.60
2023-04-15T12:03:43.233Z,18.33
2023-04-15T12:06:14.077Z,18.23
2023-04-15T12:08:55.990Z,18.03
2023-04-15T12:11:41.026Z,20.73
